sensor_id;sensor_type;location;lat;lon;timestamp;P1;durP1;ratioP1;P2;durP2;ratioP2
31238;SDS011;17871;31.584;74.450;2024-03-02T00:01:26;56.92;;;31.67;;
31238;SDS011;17871;31.584;74.450;2024-03-02T00:03:56;59.63;;;32.45;;
31238;SDS011;17871;31.584;74.450;2024-03-02T00:06:26;65.95;;;33.65;;
31238;SDS011;17871;31.584;74.450;2024-03-02T00:08:57;59.08;;;33.85;;
31238;SDS011;17871;31.584;74.450;2024-03-02T00:11:28;63.28;;;33.88;;
31238;SDS011;17871;31.584;74.450;2024-03-02T00:13:58;61.35;;;35.47;;
31238;SDS011;17871;31.584;74.450;2024-03-02T00:16:32;59.40;;;34.85;;
31238;SDS011;17871;31.584;74.450;2024-03-02T00:19:10;64.38;;;35.33;;
31238;SDS011;17871;31.584;74.450;2024-03-02T00:21:40;64.22;;;37.45;;
31238;SDS011;17871;31.584;74.450;2024-03-02T00:24:19;69.20;;;37.90;;
31238;SDS011;17871;31.584;74.450;2024-03-02T00:26:50;64.85;;;35.95;;
31238;SDS011;17871;31.584;74.450;2024-03-02T00:29:19;64.53;;;34.10;;
31238;SDS011;17871;31.584;74.450;2024-03-02T00:31:49;65.60;;;35.25;;
31238;SDS011;17871;31.584;74.450;2024-03-02T00:34:18;61.05;;;35.55;;
31238;SDS011;17871;31.584;74.450;2024-03-02T00:36:47;67.15;;;35.38;;
31238;SDS011;17871;31.584;74.450;2024-03-02T00:39:17;63.90;;;36.97;;
31238;SDS011;17871;31.584;74.450;2024-03-02T00:41:46;58.88;;;35.38;;
31238;SDS011;17871;31.584;74.450;2024-03-02T00:44:16;66.60;;;35.13;;
31238;SDS011;17871;31.584;74.450;2024-03-02T00:46:47;67.63;;;34.92;;
31238;SDS011;17871;31.584;74.450;2024-03-02T00:49:23;67.63;;;36.40;;
31238;SDS011;17871;31.584;74.450;2024-03-02T00:51:52;67.88;;;37.42;;
31238;SDS011;17871;31.584;74.450;2024-03-02T00:54:26;64.90;;;37.05;;
31238;SDS011;17871;31.584;74.450;2024-03-02T00:56:57;73.90;;;36.17;;
31238;SDS011;17871;31.584;74.450;2024-03-02T00:59:27;68.18;;;36.30;;
31238;SDS011;17871;31.584;74.450;2024-03-02T01:01:56;65.50;;;37.03;;
31238;SDS011;17871;31.584;74.450;2024-03-02T01:04:25;65.57;;;37.17;;
31238;SDS011;17871;31.584;74.450;2024-03-02T01:06:54;73.82;;;37.97;;
31238;SDS011;17871;31.584;74.450;2024-03-02T01:09:24;68.05;;;36.08;;
31238;SDS011;17871;31.584;74.450;2024-03-02T01:11:53;67.03;;;36.03;;
31238;SDS011;17871;31.584;74.450;2024-03-02T01:14:22;80.72;;;39.67;;
31238;SDS011;17871;31.584;74.450;2024-03-02T01:16:51;58.42;;;33.92;;
31238;SDS011;17871;31.584;74.450;2024-03-02T01:19:21;65.90;;;36.60;;
31238;SDS011;17871;31.584;74.450;2024-03-02T01:21:50;79.45;;;36.53;;
31238;SDS011;17871;31.584;74.450;2024-03-02T01:24:19;68.10;;;36.70;;
31238;SDS011;17871;31.584;74.450;2024-03-02T01:26:48;61.58;;;36.15;;
31238;SDS011;17871;31.584;74.450;2024-03-02T01:29:17;64.57;;;35.95;;
31238;SDS011;17871;31.584;74.450;2024-03-02T01:31:46;67.30;;;36.95;;
31238;SDS011;17871;31.584;74.450;2024-03-02T01:34:16;69.45;;;36.65;;
31238;SDS011;17871;31.584;74.450;2024-03-02T01:36:45;66.57;;;36.38;;
31238;SDS011;17871;31.584;74.450;2024-03-02T01:39:14;80.72;;;36.30;;
31238;SDS011;17871;31.584;74.450;2024-03-02T01:41:43;70.78;;;37.45;;
31238;SDS011;17871;31.584;74.450;2024-03-02T01:44:12;67.70;;;37.40;;
31238;SDS011;17871;31.584;74.450;2024-03-02T01:46:41;69.68;;;38.40;;
31238;SDS011;17871;31.584;74.450;2024-03-02T01:49:11;73.63;;;36.22;;
31238;SDS011;17871;31.584;74.450;2024-03-02T01:51:40;74.53;;;37.67;;
31238;SDS011;17871;31.584;74.450;2024-03-02T01:54:09;67.10;;;36.13;;
31238;SDS011;17871;31.584;74.450;2024-03-02T01:56:39;68.25;;;36.13;;
31238;SDS011;17871;31.584;74.450;2024-03-02T01:59:08;63.22;;;34.95;;
31238;SDS011;17871;31.584;74.450;2024-03-02T02:01:39;72.28;;;36.92;;
31238;SDS011;17871;31.584;74.450;2024-03-02T02:04:08;78.82;;;37.53;;
31238;SDS011;17871;31.584;74.450;2024-03-02T02:06:37;66.80;;;36.80;;
31238;SDS011;17871;31.584;74.450;2024-03-02T02:09:06;74.88;;;37.92;;
31238;SDS011;17871;31.584;74.450;2024-03-02T02:11:36;72.50;;;38.17;;
31238;SDS011;17871;31.584;74.450;2024-03-02T02:14:06;68.32;;;37.55;;
31238;SDS011;17871;31.584;74.450;2024-03-02T02:16:35;65.63;;;36.17;;
31238;SDS011;17871;31.584;74.450;2024-03-02T02:19:04;81.30;;;37.80;;
31238;SDS011;17871;31.584;74.450;2024-03-02T02:21:34;61.90;;;36.00;;
31238;SDS011;17871;31.584;74.450;2024-03-02T02:24:03;74.50;;;38.00;;
31238;SDS011;17871;31.584;74.450;2024-03-02T02:26:32;71.15;;;36.45;;
31238;SDS011;17871;31.584;74.450;2024-03-02T02:29:01;72.60;;;37.92;;
31238;SDS011;17871;31.584;74.450;2024-03-02T02:31:39;71.97;;;38.03;;
31238;SDS011;17871;31.584;74.450;2024-03-02T02:34:09;72.50;;;36.28;;
31238;SDS011;17871;31.584;74.450;2024-03-02T02:36:38;72.78;;;37.60;;
31238;SDS011;17871;31.584;74.450;2024-03-02T02:39:13;69.72;;;37.88;;
31238;SDS011;17871;31.584;74.450;2024-03-02T02:41:42;68.65;;;36.60;;
31238;SDS011;17871;31.584;74.450;2024-03-02T02:44:11;69.15;;;38.35;;
31238;SDS011;17871;31.584;74.450;2024-03-02T02:46:41;68.55;;;37.50;;
31238;SDS011;17871;31.584;74.450;2024-03-02T02:49:10;77.25;;;37.55;;
31238;SDS011;17871;31.584;74.450;2024-03-02T02:51:39;77.18;;;38.47;;
31238;SDS011;17871;31.584;74.450;2024-03-02T02:54:08;75.18;;;37.30;;
31238;SDS011;17871;31.584;74.450;2024-03-02T02:56:38;66.78;;;37.03;;
31238;SDS011;17871;31.584;74.450;2024-03-02T02:59:07;75.07;;;37.60;;
31238;SDS011;17871;31.584;74.450;2024-03-02T03:01:36;76.00;;;38.00;;
31238;SDS011;17871;31.584;74.450;2024-03-02T03:04:05;62.22;;;35.85;;
31238;SDS011;17871;31.584;74.450;2024-03-02T03:06:34;71.30;;;37.58;;
31238;SDS011;17871;31.584;74.450;2024-03-02T03:09:03;68.75;;;35.80;;
31238;SDS011;17871;31.584;74.450;2024-03-02T03:11:32;64.13;;;36.30;;
31238;SDS011;17871;31.584;74.450;2024-03-02T03:14:02;60.08;;;35.55;;
31238;SDS011;17871;31.584;74.450;2024-03-02T03:16:32;67.70;;;35.08;;
31238;SDS011;17871;31.584;74.450;2024-03-02T03:19:01;84.63;;;40.60;;
31238;SDS011;17871;31.584;74.450;2024-03-02T03:21:30;64.03;;;38.83;;
31238;SDS011;17871;31.584;74.450;2024-03-02T03:24:00;67.60;;;36.65;;
31238;SDS011;17871;31.584;74.450;2024-03-02T03:26:29;62.53;;;34.72;;
31238;SDS011;17871;31.584;74.450;2024-03-02T03:28:58;61.83;;;33.95;;
31238;SDS011;17871;31.584;74.450;2024-03-02T03:31:27;62.78;;;34.28;;
31238;SDS011;17871;31.584;74.450;2024-03-02T03:33:56;69.13;;;34.67;;
31238;SDS011;17871;31.584;74.450;2024-03-02T03:36:26;61.97;;;33.13;;
31238;SDS011;17871;31.584;74.450;2024-03-02T03:38:55;67.82;;;32.65;;
31238;SDS011;17871;31.584;74.450;2024-03-02T03:41:24;69.53;;;33.08;;
31238;SDS011;17871;31.584;74.450;2024-03-02T03:43:53;66.20;;;33.53;;
31238;SDS011;17871;31.584;74.450;2024-03-02T03:46:23;92.65;;;35.35;;
31238;SDS011;17871;31.584;74.450;2024-03-02T03:48:52;59.22;;;33.78;;
31238;SDS011;17871;31.584;74.450;2024-03-02T03:51:21;55.03;;;31.10;;
31238;SDS011;17871;31.584;74.450;2024-03-02T03:53:53;58.25;;;31.63;;
31238;SDS011;17871;31.584;74.450;2024-03-02T03:56:22;54.50;;;31.55;;
31238;SDS011;17871;31.584;74.450;2024-03-02T03:58:51;47.58;;;29.27;;
31238;SDS011;17871;31.584;74.450;2024-03-02T04:01:20;60.42;;;31.08;;
31238;SDS011;17871;31.584;74.450;2024-03-02T04:03:51;53.60;;;30.27;;
31238;SDS011;17871;31.584;74.450;2024-03-02T04:06:20;51.50;;;29.35;;
31238;SDS011;17871;31.584;74.450;2024-03-02T04:08:49;49.67;;;28.20;;
31238;SDS011;17871;31.584;74.450;2024-03-02T04:11:18;54.75;;;29.90;;
31238;SDS011;17871;31.584;74.450;2024-03-02T04:13:47;54.30;;;31.25;;
31238;SDS011;17871;31.584;74.450;2024-03-02T04:16:17;51.53;;;28.77;;
31238;SDS011;17871;31.584;74.450;2024-03-02T04:18:46;52.83;;;30.90;;
31238;SDS011;17871;31.584;74.450;2024-03-02T04:21:15;48.63;;;27.40;;
31238;SDS011;17871;31.584;74.450;2024-03-02T04:23:44;48.67;;;28.48;;
31238;SDS011;17871;31.584;74.450;2024-03-02T04:26:13;49.75;;;27.90;;
31238;SDS011;17871;31.584;74.450;2024-03-02T04:28:43;48.38;;;27.17;;
31238;SDS011;17871;31.584;74.450;2024-03-02T04:31:12;49.00;;;27.65;;
31238;SDS011;17871;31.584;74.450;2024-03-02T04:33:41;62.08;;;27.92;;
31238;SDS011;17871;31.584;74.450;2024-03-02T04:36:10;47.33;;;26.85;;
31238;SDS011;17871;31.584;74.450;2024-03-02T04:38:39;49.08;;;26.27;;
31238;SDS011;17871;31.584;74.450;2024-03-02T04:41:09;55.08;;;25.98;;
31238;SDS011;17871;31.584;74.450;2024-03-02T04:43:38;45.88;;;25.65;;
31238;SDS011;17871;31.584;74.450;2024-03-02T04:46:07;44.00;;;25.83;;
31238;SDS011;17871;31.584;74.450;2024-03-02T04:48:36;40.90;;;24.67;;
31238;SDS011;17871;31.584;74.450;2024-03-02T04:51:06;42.25;;;24.25;;
31238;SDS011;17871;31.584;74.450;2024-03-02T04:53:35;43.00;;;23.25;;
31238;SDS011;17871;31.584;74.450;2024-03-02T04:56:04;47.10;;;25.80;;
31238;SDS011;17871;31.584;74.450;2024-03-02T04:59:08;48.05;;;25.02;;
31238;SDS011;17871;31.584;74.450;2024-03-02T05:01:37;45.88;;;23.58;;
31238;SDS011;17871;31.584;74.450;2024-03-02T05:04:07;48.20;;;23.95;;
31238;SDS011;17871;31.584;74.450;2024-03-02T05:06:36;42.15;;;21.92;;
31238;SDS011;17871;31.584;74.450;2024-03-02T05:09:05;38.55;;;23.10;;
31238;SDS011;17871;31.584;74.450;2024-03-02T05:11:35;39.75;;;22.63;;
31238;SDS011;17871;31.584;74.450;2024-03-02T05:14:07;49.63;;;22.30;;
31238;SDS011;17871;31.584;74.450;2024-03-02T05:16:36;41.10;;;21.73;;
31238;SDS011;17871;31.584;74.450;2024-03-02T05:19:10;41.20;;;21.33;;
31238;SDS011;17871;31.584;74.450;2024-03-02T05:21:39;35.67;;;20.05;;
31238;SDS011;17871;31.584;74.450;2024-03-02T05:24:08;42.88;;;22.65;;
31238;SDS011;17871;31.584;74.450;2024-03-02T05:26:37;43.20;;;22.40;;
31238;SDS011;17871;31.584;74.450;2024-03-02T05:29:06;45.20;;;22.67;;
31238;SDS011;17871;31.584;74.450;2024-03-02T05:31:35;47.65;;;23.98;;
31238;SDS011;17871;31.584;74.450;2024-03-02T05:34:04;46.60;;;22.02;;
31238;SDS011;17871;31.584;74.450;2024-03-02T05:36:34;36.85;;;20.92;;
31238;SDS011;17871;31.584;74.450;2024-03-02T05:39:03;37.92;;;20.15;;
31238;SDS011;17871;31.584;74.450;2024-03-02T05:41:34;47.55;;;21.98;;
31238;SDS011;17871;31.584;74.450;2024-03-02T05:44:04;41.47;;;20.73;;
31238;SDS011;17871;31.584;74.450;2024-03-02T05:46:33;40.78;;;20.25;;
31238;SDS011;17871;31.584;74.450;2024-03-02T05:49:04;39.65;;;18.92;;
31238;SDS011;17871;31.584;74.450;2024-03-02T05:51:36;37.72;;;18.60;;
31238;SDS011;17871;31.584;74.450;2024-03-02T05:54:05;43.08;;;20.98;;
31238;SDS011;17871;31.584;74.450;2024-03-02T05:56:35;35.50;;;18.85;;
31238;SDS011;17871;31.584;74.450;2024-03-02T05:59:04;45.08;;;19.85;;
31238;SDS011;17871;31.584;74.450;2024-03-02T06:01:43;45.28;;;21.52;;
31238;SDS011;17871;31.584;74.450;2024-03-02T06:04:12;48.95;;;22.23;;
31238;SDS011;17871;31.584;74.450;2024-03-02T06:06:42;39.25;;;21.45;;
31238;SDS011;17871;31.584;74.450;2024-03-02T06:09:11;42.58;;;21.67;;
31238;SDS011;17871;31.584;74.450;2024-03-02T06:11:45;38.35;;;21.77;;
31238;SDS011;17871;31.584;74.450;2024-03-02T06:14:14;42.08;;;22.60;;
31238;SDS011;17871;31.584;74.450;2024-03-02T06:16:43;43.38;;;20.88;;
31238;SDS011;17871;31.584;74.450;2024-03-02T06:19:12;40.40;;;22.02;;
31238;SDS011;17871;31.584;74.450;2024-03-02T06:21:41;40.20;;;21.13;;
31238;SDS011;17871;31.584;74.450;2024-03-02T06:24:10;44.22;;;22.25;;
31238;SDS011;17871;31.584;74.450;2024-03-02T06:26:39;40.17;;;20.83;;
31238;SDS011;17871;31.584;74.450;2024-03-02T06:29:08;47.80;;;20.85;;
31238;SDS011;17871;31.584;74.450;2024-03-02T06:31:38;40.83;;;19.63;;
31238;SDS011;17871;31.584;74.450;2024-03-02T06:34:07;36.42;;;19.65;;
31238;SDS011;17871;31.584;74.450;2024-03-02T06:36:38;61.72;;;19.75;;
31238;SDS011;17871;31.584;74.450;2024-03-02T06:39:07;46.60;;;19.65;;
31238;SDS011;17871;31.584;74.450;2024-03-02T06:41:36;44.13;;;21.98;;
31238;SDS011;17871;31.584;74.450;2024-03-02T06:44:05;37.47;;;21.88;;
31238;SDS011;17871;31.584;74.450;2024-03-02T06:46:34;43.33;;;21.75;;
31238;SDS011;17871;31.584;74.450;2024-03-02T06:49:04;49.78;;;22.00;;
31238;SDS011;17871;31.584;74.450;2024-03-02T06:51:33;40.67;;;20.70;;
31238;SDS011;17871;31.584;74.450;2024-03-02T06:54:03;41.83;;;20.23;;
31238;SDS011;17871;31.584;74.450;2024-03-02T06:56:32;38.83;;;21.00;;
31238;SDS011;17871;31.584;74.450;2024-03-02T06:59:01;37.75;;;20.95;;
31238;SDS011;17871;31.584;74.450;2024-03-02T07:01:30;41.80;;;19.75;;
31238;SDS011;17871;31.584;74.450;2024-03-02T07:03:59;45.60;;;21.30;;
31238;SDS011;17871;31.584;74.450;2024-03-02T07:06:29;50.70;;;20.08;;
31238;SDS011;17871;31.584;74.450;2024-03-02T07:08:58;42.85;;;20.17;;
31238;SDS011;17871;31.584;74.450;2024-03-02T07:11:27;45.35;;;18.95;;
31238;SDS011;17871;31.584;74.450;2024-03-02T07:13:56;40.20;;;18.15;;
31238;SDS011;17871;31.584;74.450;2024-03-02T07:16:25;43.72;;;18.45;;
31238;SDS011;17871;31.584;74.450;2024-03-02T07:19:01;29.45;;;17.00;;
31238;SDS011;17871;31.584;74.450;2024-03-02T07:21:30;34.20;;;16.75;;
31238;SDS011;17871;31.584;74.450;2024-03-02T07:24:00;44.08;;;17.05;;
31238;SDS011;17871;31.584;74.450;2024-03-02T07:26:32;41.88;;;16.90;;
31238;SDS011;17871;31.584;74.450;2024-03-02T07:29:04;32.13;;;15.98;;
31238;SDS011;17871;31.584;74.450;2024-03-02T07:31:34;35.92;;;17.35;;
31238;SDS011;17871;31.584;74.450;2024-03-02T07:34:03;34.58;;;17.15;;
31238;SDS011;17871;31.584;74.450;2024-03-02T07:36:33;32.05;;;15.40;;
31238;SDS011;17871;31.584;74.450;2024-03-02T07:39:02;45.95;;;15.32;;
31238;SDS011;17871;31.584;74.450;2024-03-02T07:41:32;43.28;;;14.13;;
31238;SDS011;17871;31.584;74.450;2024-03-02T07:44:01;50.80;;;15.55;;
31238;SDS011;17871;31.584;74.450;2024-03-02T07:46:30;45.22;;;15.70;;
31238;SDS011;17871;31.584;74.450;2024-03-02T07:48:59;41.00;;;15.85;;
31238;SDS011;17871;31.584;74.450;2024-03-02T07:51:28;24.88;;;14.30;;
31238;SDS011;17871;31.584;74.450;2024-03-02T07:53:57;38.15;;;13.85;;
31238;SDS011;17871;31.584;74.450;2024-03-02T07:56:26;50.83;;;14.85;;
31238;SDS011;17871;31.584;74.450;2024-03-02T07:58:56;41.30;;;15.02;;
31238;SDS011;17871;31.584;74.450;2024-03-02T08:01:29;51.17;;;15.07;;
31238;SDS011;17871;31.584;74.450;2024-03-02T08:06:32;30.75;;;14.73;;
31238;SDS011;17871;31.584;74.450;2024-03-02T08:09:01;41.53;;;16.13;;
31238;SDS011;17871;31.584;74.450;2024-03-02T08:11:33;33.13;;;14.55;;
31238;SDS011;17871;31.584;74.450;2024-03-02T08:14:03;41.83;;;13.90;;
31238;SDS011;17871;31.584;74.450;2024-03-02T08:16:33;36.22;;;12.90;;
31238;SDS011;17871;31.584;74.450;2024-03-02T08:19:02;42.13;;;12.60;;
31238;SDS011;17871;31.584;74.450;2024-03-02T08:21:32;37.15;;;12.35;;
31238;SDS011;17871;31.584;74.450;2024-03-02T08:24:03;37.60;;;11.38;;
31238;SDS011;17871;31.584;74.450;2024-03-02T08:26:32;31.02;;;11.50;;
31238;SDS011;17871;31.584;74.450;2024-03-02T08:29:01;27.70;;;10.52;;
31238;SDS011;17871;31.584;74.450;2024-03-02T08:31:32;23.05;;;10.32;;
31238;SDS011;17871;31.584;74.450;2024-03-02T08:34:04;39.65;;;10.35;;
31238;SDS011;17871;31.584;74.450;2024-03-02T08:36:33;39.22;;;10.88;;
31238;SDS011;17871;31.584;74.450;2024-03-02T08:39:02;39.70;;;10.15;;
31238;SDS011;17871;31.584;74.450;2024-03-02T08:41:31;28.70;;;10.38;;
31238;SDS011;17871;31.584;74.450;2024-03-02T08:44:01;22.77;;;9.25;;
31238;SDS011;17871;31.584;74.450;2024-03-02T08:46:29;19.30;;;9.75;;
31238;SDS011;17871;31.584;74.450;2024-03-02T08:48:59;22.13;;;8.40;;
31238;SDS011;17871;31.584;74.450;2024-03-02T08:51:28;18.17;;;9.77;;
31238;SDS011;17871;31.584;74.450;2024-03-02T08:53:57;37.60;;;9.40;;
31238;SDS011;17871;31.584;74.450;2024-03-02T08:56:26;49.25;;;10.77;;
31238;SDS011;17871;31.584;74.450;2024-03-02T08:58:55;33.97;;;9.95;;
31238;SDS011;17871;31.584;74.450;2024-03-02T09:01:25;29.10;;;10.45;;
31238;SDS011;17871;31.584;74.450;2024-03-02T09:03:55;30.15;;;10.77;;
31238;SDS011;17871;31.584;74.450;2024-03-02T09:06:24;22.63;;;9.73;;
31238;SDS011;17871;31.584;74.450;2024-03-02T09:08:53;29.58;;;8.35;;
31238;SDS011;17871;31.584;74.450;2024-03-02T09:11:22;24.58;;;7.43;;
31238;SDS011;17871;31.584;74.450;2024-03-02T09:13:52;26.23;;;6.30;;
31238;SDS011;17871;31.584;74.450;2024-03-02T09:16:21;32.00;;;7.65;;
31238;SDS011;17871;31.584;74.450;2024-03-02T09:18:51;30.85;;;6.75;;
31238;SDS011;17871;31.584;74.450;2024-03-02T09:21:20;22.23;;;6.80;;
31238;SDS011;17871;31.584;74.450;2024-03-02T09:23:49;26.45;;;7.65;;
31238;SDS011;17871;31.584;74.450;2024-03-02T09:26:18;23.77;;;8.43;;
31238;SDS011;17871;31.584;74.450;2024-03-02T09:28:49;29.15;;;8.10;;
31238;SDS011;17871;31.584;74.450;2024-03-02T09:31:18;16.83;;;7.28;;
31238;SDS011;17871;31.584;74.450;2024-03-02T09:33:47;21.40;;;7.15;;
31238;SDS011;17871;31.584;74.450;2024-03-02T09:36:19;18.83;;;7.82;;
31238;SDS011;17871;31.584;74.450;2024-03-02T09:41:17;21.52;;;7.10;;
31238;SDS011;17871;31.584;74.450;2024-03-02T09:43:47;26.00;;;7.10;;
31238;SDS011;17871;31.584;74.450;2024-03-02T09:46:16;19.58;;;6.68;;
31238;SDS011;17871;31.584;74.450;2024-03-02T09:48:46;22.40;;;7.53;;
31238;SDS011;17871;31.584;74.450;2024-03-02T09:51:15;30.55;;;6.78;;
31238;SDS011;17871;31.584;74.450;2024-03-02T09:53:47;25.00;;;7.78;;
31238;SDS011;17871;31.584;74.450;2024-03-02T09:56:17;21.42;;;6.50;;
31238;SDS011;17871;31.584;74.450;2024-03-02T09:58:49;17.38;;;6.85;;
31238;SDS011;17871;31.584;74.450;2024-03-02T10:01:18;16.83;;;7.13;;
31238;SDS011;17871;31.584;74.450;2024-03-02T10:03:47;28.20;;;6.70;;
31238;SDS011;17871;31.584;74.450;2024-03-02T10:06:19;20.02;;;6.10;;
31238;SDS011;17871;31.584;74.450;2024-03-02T10:08:49;19.00;;;6.43;;
31238;SDS011;17871;31.584;74.450;2024-03-02T10:11:34;26.58;;;6.00;;
31238;SDS011;17871;31.584;74.450;2024-03-02T10:14:06;30.25;;;6.28;;
31238;SDS011;17871;31.584;74.450;2024-03-02T10:16:37;25.90;;;6.45;;
31238;SDS011;17871;31.584;74.450;2024-03-02T10:19:19;16.75;;;5.82;;
31238;SDS011;17871;31.584;74.450;2024-03-02T10:21:49;20.73;;;7.13;;
31238;SDS011;17871;31.584;74.450;2024-03-02T10:24:19;17.15;;;5.90;;
31238;SDS011;17871;31.584;74.450;2024-03-02T10:26:48;16.40;;;6.22;;
31238;SDS011;17871;31.584;74.450;2024-03-02T10:29:18;27.73;;;7.03;;
31238;SDS011;17871;31.584;74.450;2024-03-02T10:31:47;18.52;;;6.55;;
31238;SDS011;17871;31.584;74.450;2024-03-02T10:34:16;20.98;;;7.28;;
31238;SDS011;17871;31.584;74.450;2024-03-02T10:36:45;15.93;;;6.45;;
31238;SDS011;17871;31.584;74.450;2024-03-02T10:39:15;33.15;;;6.93;;
31238;SDS011;17871;31.584;74.450;2024-03-02T10:41:44;30.55;;;6.88;;
31238;SDS011;17871;31.584;74.450;2024-03-02T10:44:14;24.85;;;7.03;;
31238;SDS011;17871;31.584;74.450;2024-03-02T10:46:45;31.27;;;7.05;;
31238;SDS011;17871;31.584;74.450;2024-03-02T10:49:15;26.65;;;5.97;;
31238;SDS011;17871;31.584;74.450;2024-03-02T10:51:44;20.20;;;7.00;;
31238;SDS011;17871;31.584;74.450;2024-03-02T10:54:13;18.50;;;7.13;;
31238;SDS011;17871;31.584;74.450;2024-03-02T10:56:43;20.75;;;6.80;;
31238;SDS011;17871;31.584;74.450;2024-03-02T11:01:44;20.15;;;7.40;;
31238;SDS011;17871;31.584;74.450;2024-03-02T11:04:16;20.58;;;7.45;;
31238;SDS011;17871;31.584;74.450;2024-03-02T11:06:49;23.27;;;6.82;;
31238;SDS011;17871;31.584;74.450;2024-03-02T11:09:21;37.38;;;7.22;;
31238;SDS011;17871;31.584;74.450;2024-03-02T11:11:56;26.45;;;7.95;;
31238;SDS011;17871;31.584;74.450;2024-03-02T11:14:31;19.08;;;7.13;;
31238;SDS011;17871;31.584;74.450;2024-03-02T11:17:02;18.00;;;7.53;;
31238;SDS011;17871;31.584;74.450;2024-03-02T11:19:32;16.98;;;7.45;;
31238;SDS011;17871;31.584;74.450;2024-03-02T11:22:02;17.25;;;6.63;;
31238;SDS011;17871;31.584;74.450;2024-03-02T11:24:32;15.55;;;7.57;;
31238;SDS011;17871;31.584;74.450;2024-03-02T11:27:05;20.70;;;7.57;;
31238;SDS011;17871;31.584;74.450;2024-03-02T11:34:46;7.97;;;4.43;;
31238;SDS011;17871;31.584;74.450;2024-03-02T11:37:16;14.00;;;5.93;;
31238;SDS011;17871;31.584;74.450;2024-03-02T11:39:47;14.07;;;5.40;;
31238;SDS011;17871;31.584;74.450;2024-03-02T11:42:17;13.68;;;4.93;;
31238;SDS011;17871;31.584;74.450;2024-03-02T11:44:47;13.55;;;5.50;;
31238;SDS011;17871;31.584;74.450;2024-03-02T11:47:17;10.07;;;5.15;;
31238;SDS011;17871;31.584;74.450;2024-03-02T11:49:50;16.08;;;5.80;;
31238;SDS011;17871;31.584;74.450;2024-03-02T11:52:23;22.17;;;7.45;;
31238;SDS011;17871;31.584;74.450;2024-03-02T11:54:52;11.57;;;7.15;;
31238;SDS011;17871;31.584;74.450;2024-03-02T11:57:22;12.73;;;6.72;;
31238;SDS011;17871;31.584;74.450;2024-03-02T11:59:51;13.93;;;7.10;;
31238;SDS011;17871;31.584;74.450;2024-03-02T12:02:21;12.35;;;6.38;;
31238;SDS011;17871;31.584;74.450;2024-03-02T12:04:50;14.85;;;6.70;;
31238;SDS011;17871;31.584;74.450;2024-03-02T12:07:22;14.38;;;5.93;;
31238;SDS011;17871;31.584;74.450;2024-03-02T12:10:01;12.60;;;6.72;;
31238;SDS011;17871;31.584;74.450;2024-03-02T12:12:31;17.45;;;7.13;;
31238;SDS011;17871;31.584;74.450;2024-03-02T12:15:01;9.00;;;5.90;;
31238;SDS011;17871;31.584;74.450;2024-03-02T12:17:32;18.83;;;7.18;;
31238;SDS011;17871;31.584;74.450;2024-03-02T12:20:01;15.80;;;6.25;;
31238;SDS011;17871;31.584;74.450;2024-03-02T12:22:32;12.70;;;7.40;;
31238;SDS011;17871;31.584;74.450;2024-03-02T12:25:01;15.25;;;7.63;;
31238;SDS011;17871;31.584;74.450;2024-03-02T12:27:32;16.73;;;9.27;;
31238;SDS011;17871;31.584;74.450;2024-03-02T12:30:01;14.85;;;7.57;;
31238;SDS011;17871;31.584;74.450;2024-03-02T12:32:30;23.05;;;8.13;;
31238;SDS011;17871;31.584;74.450;2024-03-02T12:34:59;19.55;;;8.15;;
31238;SDS011;17871;31.584;74.450;2024-03-02T12:37:29;13.88;;;7.43;;
31238;SDS011;17871;31.584;74.450;2024-03-02T12:39:58;14.88;;;7.25;;
31238;SDS011;17871;31.584;74.450;2024-03-02T12:42:28;22.08;;;8.70;;
31238;SDS011;17871;31.584;74.450;2024-03-02T12:44:58;18.23;;;8.95;;
31238;SDS011;17871;31.584;74.450;2024-03-02T12:47:27;20.40;;;11.55;;
31238;SDS011;17871;31.584;74.450;2024-03-02T12:49:56;25.42;;;13.07;;
31238;SDS011;17871;31.584;74.450;2024-03-02T12:52:26;25.48;;;14.05;;
31238;SDS011;17871;31.584;74.450;2024-03-02T12:54:56;25.55;;;15.25;;
31238;SDS011;17871;31.584;74.450;2024-03-02T12:57:29;28.23;;;14.20;;
31238;SDS011;17871;31.584;74.450;2024-03-02T13:02:29;17.20;;;8.65;;
31238;SDS011;17871;31.584;74.450;2024-03-02T13:04:58;16.65;;;7.03;;
31238;SDS011;17871;31.584;74.450;2024-03-02T13:07:28;14.27;;;6.47;;
31238;SDS011;17871;31.584;74.450;2024-03-02T13:09:57;10.32;;;6.80;;
31238;SDS011;17871;31.584;74.450;2024-03-02T13:12:26;10.75;;;6.95;;
31238;SDS011;17871;31.584;74.450;2024-03-02T13:14:57;17.92;;;7.32;;
31238;SDS011;17871;31.584;74.450;2024-03-02T13:17:27;19.92;;;8.88;;
31238;SDS011;17871;31.584;74.450;2024-03-02T13:20:02;16.17;;;8.85;;
31238;SDS011;17871;31.584;74.450;2024-03-02T13:22:33;21.10;;;9.68;;
31238;SDS011;17871;31.584;74.450;2024-03-02T13:25:02;20.77;;;9.23;;
31238;SDS011;17871;31.584;74.450;2024-03-02T13:27:37;17.55;;;9.52;;
31238;SDS011;17871;31.584;74.450;2024-03-02T13:30:07;21.98;;;10.38;;
31238;SDS011;17871;31.584;74.450;2024-03-02T13:32:39;18.98;;;10.73;;
31238;SDS011;17871;31.584;74.450;2024-03-02T13:35:08;32.22;;;11.57;;
31238;SDS011;17871;31.584;74.450;2024-03-02T13:37:39;44.20;;;13.13;;
31238;SDS011;17871;31.584;74.450;2024-03-02T13:40:10;28.65;;;10.80;;
31238;SDS011;17871;31.584;74.450;2024-03-02T13:42:42;35.63;;;12.55;;
31238;SDS011;17871;31.584;74.450;2024-03-02T13:45:12;30.73;;;13.65;;
31238;SDS011;17871;31.584;74.450;2024-03-02T13:47:42;26.60;;;11.20;;
31238;SDS011;17871;31.584;74.450;2024-03-02T13:50:11;21.15;;;12.30;;
31238;SDS011;17871;31.584;74.450;2024-03-02T13:52:40;20.40;;;11.45;;
31238;SDS011;17871;31.584;74.450;2024-03-02T13:55:10;21.85;;;13.93;;
31238;SDS011;17871;31.584;74.450;2024-03-02T13:57:40;19.92;;;13.40;;
31238;SDS011;17871;31.584;74.450;2024-03-02T14:00:09;23.52;;;14.35;;
31238;SDS011;17871;31.584;74.450;2024-03-02T14:02:41;23.85;;;15.63;;
31238;SDS011;17871;31.584;74.450;2024-03-02T14:05:10;31.65;;;17.90;;
31238;SDS011;17871;31.584;74.450;2024-03-02T14:07:40;26.45;;;17.02;;
31238;SDS011;17871;31.584;74.450;2024-03-02T14:10:10;28.90;;;16.42;;
31238;SDS011;17871;31.584;74.450;2024-03-02T14:12:40;24.48;;;16.98;;
31238;SDS011;17871;31.584;74.450;2024-03-02T14:15:13;23.92;;;15.00;;
31238;SDS011;17871;31.584;74.450;2024-03-02T14:17:46;31.48;;;17.25;;
31238;SDS011;17871;31.584;74.450;2024-03-02T14:20:16;26.50;;;16.17;;
31238;SDS011;17871;31.584;74.450;2024-03-02T14:22:50;24.40;;;16.08;;
31238;SDS011;17871;31.584;74.450;2024-03-02T14:25:19;26.58;;;16.73;;
31238;SDS011;17871;31.584;74.450;2024-03-02T14:27:48;23.55;;;16.13;;
31238;SDS011;17871;31.584;74.450;2024-03-02T14:30:37;34.92;;;17.65;;
31238;SDS011;17871;31.584;74.450;2024-03-02T14:33:07;25.60;;;16.55;;
31238;SDS011;17871;31.584;74.450;2024-03-02T14:35:37;27.45;;;18.50;;
31238;SDS011;17871;31.584;74.450;2024-03-02T14:38:06;37.30;;;19.98;;
31238;SDS011;17871;31.584;74.450;2024-03-02T14:40:36;35.58;;;17.33;;
31238;SDS011;17871;31.584;74.450;2024-03-02T14:43:05;28.58;;;18.30;;
31238;SDS011;17871;31.584;74.450;2024-03-02T14:45:35;34.33;;;18.83;;